createdAt,value
2018-11-12T00:02:16.442Z,100972.05
2018-11-12T00:05:20.683Z,100967.64
2018-11-12T00:08:24.961Z,100977.34
2018-11-12T00:11:29.190Z,100976.72
2018-11-12T00:14:33.481Z,100964.64
2018-11-12T00:17:37.760Z,100969.13
2018-11-12T00:20:42.026Z,100975.83
2018-11-12T00:23:46.585Z,100981.05
2018-11-12T00:26:50.835Z,100982.83
2018-11-12T00:29:55.099Z,100979.70
2018-11-12T00:32:59.361Z,100984.91
2018-11-12T00:36:03.614Z,100996.39
2018-11-12T00:39:11.057Z,101002.23
2018-11-12T00:42:15.331Z,101011.84
2018-11-12T00:45:19.586Z,101020.05
2018-11-12T00:48:23.837Z,101033.52
2018-11-12T00:51:28.201Z,101020.38
2018-11-12T00:54:32.454Z,101036.10
2018-11-12T00:57:36.703Z,101037.66
2018-11-12T01:00:40.957Z,101045.70
2018-11-12T01:03:45.207Z,101062.17
2018-11-12T01:06:49.484Z,101063.09
2018-11-12T01:09:53.690Z,101071.13
2018-11-12T01:12:57.950Z,101066.94
2018-11-12T01:16:02.282Z,101068.30
2018-11-12T01:19:06.732Z,101069.65
2018-11-12T01:22:10.969Z,101077.27
2018-11-12T01:25:15.712Z,101081.33
2018-11-12T01:28:19.955Z,101084.05
2018-11-12T01:31:24.215Z,101090.72
2018-11-12T01:34:28.446Z,101094.78
2018-11-12T01:37:32.701Z,101093.44
2018-11-12T01:40:36.943Z,101096.23
2018-11-12T01:43:41.182Z,101099.16
2018-11-12T01:46:45.425Z,101094.78
2018-11-12T01:49:49.698Z,101088.52
2018-11-12T01:52:53.961Z,101087.89
2018-11-12T01:55:58.221Z,101099.27
2018-11-12T01:59:02.469Z,101098.63
2018-11-12T02:02:07.267Z,101104.55
2018-11-12T02:05:11.661Z,101104.77
2018-11-12T02:08:15.889Z,101113.94
2018-11-12T02:11:20.156Z,101118.41
2018-11-12T02:14:24.485Z,101116.22
2018-11-12T02:17:28.739Z,101123.83
2018-11-12T02:20:32.968Z,101125.70
2018-11-12T02:23:37.448Z,101130.47
2018-11-12T02:26:41.791Z,101136.30
2018-11-12T02:29:46.040Z,101130.58
2018-11-12T02:32:50.324Z,101133.48
2018-11-12T02:35:54.570Z,101128.48
2018-11-12T02:38:58.842Z,101132.95
2018-11-12T02:42:03.151Z,101138.67
2018-11-12T02:45:08.631Z,101136.38
2018-11-12T02:48:12.861Z,101125.44
2018-11-12T02:51:17.118Z,101136.78
2018-11-12T02:54:21.345Z,101138.54
2018-11-12T02:57:25.633Z,101139.05
2018-11-12T03:00:29.878Z,101135.39
2018-11-12T03:03:34.135Z,101136.95
2018-11-12T03:06:38.390Z,101138.20
2018-11-12T03:09:42.646Z,101144.53
2018-11-12T03:12:46.890Z,101144.23
2018-11-12T03:15:51.139Z,101139.52
2018-11-12T03:18:55.368Z,101138.57
2018-11-12T03:21:59.628Z,101138.47
2018-11-12T03:25:03.981Z,101137.62
2018-11-12T03:28:08.243Z,101138.66
2018-11-12T03:31:12.470Z,101149.36
2018-11-12T03:34:16.726Z,101144.99
2018-11-12T03:37:21.007Z,101145.70
2018-11-12T03:40:25.269Z,101153.52
2018-11-12T03:43:29.535Z,101160.79
2018-11-12T03:46:33.817Z,101165.16
2018-11-12T03:49:38.077Z,101166.00
2018-11-12T03:52:42.468Z,101158.28
2018-11-12T03:55:46.732Z,101159.84
2018-11-12T03:58:51.013Z,101168.80
2018-11-12T04:01:55.236Z,101173.58
2018-11-12T04:04:59.487Z,101173.58
2018-11-12T04:08:03.724Z,101181.02
2018-11-12T04:11:07.981Z,101186.43
2018-11-12T04:14:12.958Z,101186.23
2018-11-12T04:17:17.213Z,101190.97
2018-11-12T04:20:22.932Z,101182.95
2018-11-12T04:23:27.280Z,101181.94
2018-11-12T04:26:31.578Z,101190.17
2018-11-12T04:29:35.849Z,101194.57
2018-11-12T04:32:40.337Z,101191.86
2018-11-12T04:35:44.654Z,101200.80
2018-11-12T04:38:48.915Z,101204.36
2018-11-12T04:41:53.201Z,101206.86
2018-11-12T04:44:57.444Z,101210.22
2018-11-12T04:48:01.686Z,101216.25
2018-11-12T04:51:06.040Z,101211.17
2018-11-12T04:54:10.272Z,101212.63
2018-11-12T04:57:14.566Z,101216.29
2018-11-12T05:00:23.244Z,101219.64
2018-11-12T05:03:27.530Z,101213.52
2018-11-12T05:06:31.781Z,101202.99
2018-11-12T05:09:36.048Z,101200.94
2018-11-12T05:12:40.982Z,101204.79
2018-11-12T05:15:45.300Z,101218.75
2018-11-12T05:18:49.516Z,101218.89
2018-11-12T05:21:53.814Z,101222.95
2018-11-12T05:24:58.044Z,101234.39
2018-11-12T05:28:02.306Z,101246.42
2018-11-12T05:31:06.574Z,101248.92
2018-11-12T05:34:10.834Z,101250.69
2018-11-12T05:37:15.083Z,101256.25
2018-11-12T05:40:22.326Z,101244.67
2018-11-12T05:43:26.647Z,101242.30
2018-11-12T05:46:30.914Z,101249.88
2018-11-12T05:49:35.136Z,101242.60
2018-11-12T05:52:39.381Z,101233.56
2018-11-12T05:55:43.633Z,101225.23
2018-11-12T05:58:47.908Z,101223.17
2018-11-12T06:01:52.158Z,101221.81
2018-11-12T06:04:56.435Z,101218.36
2018-11-12T06:08:00.632Z,101227.34
2018-11-12T06:11:04.877Z,101224.42
2018-11-12T06:14:09.292Z,101236.11
2018-11-12T06:17:13.530Z,101232.05
2018-11-12T06:20:21.353Z,101229.13
2018-11-12T06:23:25.602Z,101220.46
2018-11-12T06:26:29.833Z,101232.25
2018-11-12T06:29:34.091Z,101233.94
2018-11-12T06:32:38.642Z,101244.78
2018-11-12T06:35:42.887Z,101242.72
2018-11-12T06:38:47.142Z,101236.25
2018-11-12T06:41:51.393Z,101238.45
2018-11-12T06:44:55.638Z,101233.84
2018-11-12T06:48:00.449Z,101238.75
2018-11-12T06:51:04.728Z,101234.69
2018-11-12T06:54:08.982Z,101244.17
2018-11-12T06:57:13.233Z,101244.88
2018-11-12T07:00:24.186Z,101238.66
2018-11-12T07:03:28.469Z,101238.31
2018-11-12T07:06:32.876Z,101242.07
2018-11-12T07:09:37.130Z,101240.72
2018-11-12T07:12:42.504Z,101234.95
2018-11-12T07:15:46.731Z,101238.72
2018-11-12T07:18:50.997Z,101231.64
2018-11-12T07:21:55.261Z,101236.52
2018-11-12T07:24:59.573Z,101238.72
2018-11-12T07:28:03.826Z,101251.22
2018-11-12T07:31:08.138Z,101255.92
2018-11-12T07:34:12.365Z,101251.66
2018-11-12T07:37:16.613Z,101259.08
2018-11-12T07:40:21.254Z,101267.01
2018-11-12T07:43:25.514Z,101272.94
2018-11-12T07:46:29.755Z,101283.38
2018-11-12T07:49:34.021Z,101283.17
2018-11-12T07:52:38.619Z,101282.46
2018-11-12T07:55:42.871Z,101275.48
2018-11-12T07:58:47.114Z,101284.91
2018-11-12T08:01:51.355Z,101285.52
2018-11-12T08:04:55.624Z,101294.80
2018-11-12T08:07:59.911Z,101287.31
2018-11-12T08:11:04.168Z,101285.55
2018-11-12T08:14:08.547Z,101292.77
2018-11-12T08:17:12.832Z,101284.73
2018-11-12T08:20:18.445Z,101290.90
2018-11-12T08:23:22.697Z,101291.03
2018-11-12T08:26:27.050Z,101294.69
2018-11-12T08:29:31.328Z,101290.22
2018-11-12T08:32:35.560Z,101291.16
2018-11-12T08:35:39.860Z,101289.49
2018-11-12T08:38:44.089Z,101292.13
2018-11-12T08:41:48.332Z,101289.31
2018-11-12T08:44:52.577Z,101280.97
2018-11-12T08:47:57.428Z,101276.82
2018-11-12T08:51:01.647Z,101281.63
2018-11-12T08:54:06.476Z,101276.09
2018-11-12T08:57:10.716Z,101282.46
2018-11-12T09:00:15.097Z,101274.96
2018-11-12T09:03:19.339Z,101277.05
2018-11-12T09:06:23.608Z,101269.00
2018-11-12T09:09:27.845Z,101270.28
2018-11-12T09:12:32.081Z,101268.00
2018-11-12T09:15:36.401Z,101270.90
2018-11-12T09:18:40.635Z,101269.12
2018-11-12T09:21:44.894Z,101274.17
2018-11-12T09:24:49.226Z,101272.70
2018-11-12T09:27:53.477Z,101272.91
2018-11-12T09:30:59.137Z,101277.75
2018-11-12T09:34:02.014Z,101284.42
2018-11-12T09:37:06.291Z,101276.70
2018-11-12T09:40:19.292Z,101278.69
2018-11-12T09:43:23.576Z,101283.28
2018-11-12T09:46:27.843Z,101281.59
2018-11-12T09:49:32.106Z,101272.00
2018-11-12T09:52:36.395Z,101274.72
2018-11-12T09:55:40.676Z,101268.52
2018-11-12T09:58:44.928Z,101273.53
2018-11-12T10:01:49.573Z,101272.92
2018-11-12T10:04:54.874Z,101272.29
2018-11-12T10:08:02.611Z,101278.54
2018-11-12T10:11:08.874Z,101271.02
2018-11-12T10:14:12.868Z,101268.39
2018-11-12T10:17:17.956Z,101278.66
2018-11-12T10:20:20.096Z,101278.74
2018-11-12T10:23:24.306Z,101266.59
2018-11-12T10:26:28.588Z,101252.58
2018-11-12T10:29:32.860Z,101248.41
2018-11-12T10:32:37.203Z,101252.57
2018-11-12T10:35:41.476Z,101249.34
2018-11-12T10:38:45.760Z,101244.42
2018-11-12T10:41:50.044Z,101241.70
2018-11-12T10:44:54.295Z,101228.66
2018-11-12T10:47:58.542Z,101225.72
2018-11-12T10:51:05.170Z,101222.79
2018-11-12T10:54:07.243Z,101225.59
2018-11-12T10:57:11.405Z,101218.88
2018-11-12T11:00:25.445Z,101207.27
2018-11-12T11:03:37.860Z,101204.85
2018-11-12T11:06:42.109Z,101210.91
2018-11-12T11:09:46.475Z,101202.55
2018-11-12T11:12:50.733Z,101206.41
2018-11-12T11:15:54.989Z,101199.39
2018-11-12T11:18:59.242Z,101196.16
2018-11-12T11:22:03.528Z,101193.22
2018-11-12T11:25:07.958Z,101200.31
2018-11-12T11:28:12.220Z,101197.93
2018-11-12T11:31:16.494Z,101189.22
2018-11-12T11:34:21.144Z,101191.42
2018-11-12T11:37:26.155Z,101193.00
2018-11-12T11:40:30.425Z,101194.66
2018-11-12T11:43:34.713Z,101209.10
2018-11-12T11:46:38.976Z,101215.69
2018-11-12T11:49:43.233Z,101217.05
2018-11-12T11:52:47.581Z,101218.70
2018-11-12T11:55:51.851Z,101215.47
2018-11-12T11:58:56.132Z,101216.31
2018-11-12T12:02:00.412Z,101219.03
2018-11-12T12:05:05.069Z,101222.05
2018-11-12T12:08:09.371Z,101215.77
2018-11-12T12:11:13.620Z,101215.55
2018-11-12T12:14:17.895Z,101218.59
2018-11-12T12:17:22.153Z,101210.22
2018-11-12T12:20:27.162Z,101197.98
2018-11-12T12:23:31.460Z,101208.34
2018-11-12T12:26:35.736Z,101202.36
2018-11-12T12:29:39.980Z,101201.11
2018-11-12T12:32:45.411Z,101204.34
2018-11-12T12:35:49.682Z,101204.34
2018-11-12T12:38:53.937Z,101206.22
2018-11-12T12:41:58.544Z,101199.97
2018-11-12T12:45:02.935Z,101197.25
2018-11-12T12:48:07.081Z,101182.89
2018-11-12T12:51:11.359Z,101186.23
2018-11-12T12:54:15.627Z,101181.64
2018-11-12T12:57:19.897Z,101176.49
2018-11-12T13:00:25.483Z,101177.01
2018-11-12T13:03:29.760Z,101179.73
2018-11-12T13:06:34.033Z,101183.00
2018-11-12T13:09:38.328Z,101178.08
2018-11-12T13:12:42.713Z,101186.53
2018-11-12T13:15:46.978Z,101175.65
2018-11-12T13:18:51.241Z,101177.01
2018-11-12T13:21:55.517Z,101173.15
2018-11-12T13:24:59.808Z,101167.19
2018-11-12T13:28:04.071Z,101172.12
2018-11-12T13:31:08.323Z,101173.77
2018-11-12T13:34:12.563Z,101157.75
2018-11-12T13:37:16.921Z,101155.87
2018-11-12T13:40:22.452Z,101159.73
2018-11-12T13:43:26.766Z,101164.66
2018-11-12T13:46:36.318Z,101162.75
2018-11-12T13:49:40.522Z,101167.16
2018-11-12T13:52:45.168Z,101162.53
2018-11-12T13:55:49.419Z,101160.14
2018-11-12T13:58:53.692Z,101159.08
2018-11-12T14:01:57.926Z,101149.27
2018-11-12T14:05:02.212Z,101155.00
2018-11-12T14:08:06.597Z,101156.06
2018-11-12T14:11:10.863Z,101147.06
2018-11-12T14:14:15.112Z,101153.97
2018-11-12T14:17:19.388Z,101156.47
2018-11-12T14:20:24.340Z,101152.17
2018-11-12T14:23:28.556Z,101155.41
2018-11-12T14:26:32.925Z,101144.23
2018-11-12T14:29:37.282Z,101150.80
2018-11-12T14:32:41.534Z,101148.30
2018-11-12T14:35:45.827Z,101148.53
2018-11-12T14:38:50.525Z,101140.66
2018-11-12T14:41:54.814Z,101138.68
2018-11-12T14:44:59.172Z,101137.31
2018-11-12T14:48:03.458Z,101131.87
2018-11-12T14:51:07.742Z,101132.94
2018-11-12T14:54:12.014Z,101126.14
2018-11-12T14:57:16.283Z,101129.16
2018-11-12T15:00:23.927Z,101125.92
2018-11-12T15:03:28.188Z,101129.27
2018-11-12T15:06:32.450Z,101119.52
2018-11-12T15:09:36.718Z,101098.05
2018-11-12T15:12:41.049Z,101104.56
2018-11-12T15:15:45.375Z,101113.23
2018-11-12T15:18:49.640Z,101123.83
2018-11-12T15:21:53.921Z,101119.30
2018-11-12T15:24:58.230Z,101119.74
2018-11-12T15:28:02.518Z,101108.31
2018-11-12T15:31:06.784Z,101108.94
2018-11-12T15:34:11.039Z,101101.07
2018-11-12T15:37:15.373Z,101097.77
2018-11-12T15:40:19.625Z,101103.94
2018-11-12T15:43:23.909Z,101107.17
2018-11-12T15:46:28.212Z,101106.58
2018-11-12T15:49:32.490Z,101105.74
2018-11-12T15:52:36.761Z,101095.59
2018-11-12T15:55:41.007Z,101101.26
2018-11-12T15:58:45.279Z,101097.33
2018-11-12T16:01:49.538Z,101113.31
2018-11-12T16:04:53.795Z,101112.72
2018-11-12T16:07:58.037Z,101117.02
2018-11-12T16:11:02.313Z,101108.23
2018-11-12T16:14:07.532Z,101112.03
2018-11-12T16:17:11.825Z,101123.09
2018-11-12T16:20:25.119Z,101122.50
2018-11-12T16:23:29.403Z,101121.80
2018-11-12T16:26:33.672Z,101128.27
2018-11-12T16:29:37.973Z,101137.48
2018-11-12T16:32:43.122Z,101156.30
2018-11-12T16:35:47.319Z,101152.36
2018-11-12T16:38:51.764Z,101163.53
2018-11-12T16:41:55.996Z,101165.33
2018-11-12T16:45:00.256Z,101175.36
2018-11-12T16:48:04.506Z,101178.92
2018-11-12T16:51:08.745Z,101184.66
2018-11-12T16:54:13.044Z,101193.77
2018-11-12T16:57:17.285Z,101190.66
2018-11-12T17:00:22.844Z,101199.47
2018-11-12T17:03:27.077Z,101196.53
2018-11-12T17:06:31.388Z,101200.39
2018-11-12T17:09:35.679Z,101206.13
2018-11-12T17:12:40.816Z,101200.39
2018-11-12T17:15:45.103Z,101209.36
2018-11-12T17:18:49.336Z,101213.88
2018-11-12T17:21:53.625Z,101201.98
2018-11-12T17:24:57.884Z,101213.37
2018-11-12T17:28:02.137Z,101207.09
2018-11-12T17:31:06.540Z,101198.34
2018-11-12T17:34:10.844Z,101203.45
2018-11-12T17:37:15.094Z,101213.17
2018-11-12T17:40:21.630Z,101219.54
2018-11-12T17:43:26.676Z,101217.17
2018-11-12T17:46:30.980Z,101222.60
2018-11-12T17:49:35.241Z,101225.02
2018-11-12T17:52:41.112Z,101236.41
2018-11-12T17:55:45.360Z,101233.69
2018-11-12T17:58:49.597Z,101241.97
2018-11-12T18:01:53.861Z,101241.64
2018-11-12T18:04:58.111Z,101225.25
2018-11-12T18:08:02.348Z,101223.34
2018-11-12T18:11:06.625Z,101231.91
2018-11-12T18:14:12.032Z,101232.33
2018-11-12T18:17:16.287Z,101238.83
2018-11-12T18:20:24.377Z,101240.99
2018-11-12T18:23:28.652Z,101242.91
2018-11-12T18:26:32.897Z,101245.07
2018-11-12T18:29:37.235Z,101245.41
2018-11-12T18:32:41.652Z,101263.49
2018-11-12T18:35:45.883Z,101267.02
2018-11-12T18:38:50.188Z,101270.59
2018-11-12T18:41:54.430Z,101278.02
2018-11-12T18:44:58.718Z,101277.59
2018-11-12T18:48:02.992Z,101269.14
2018-11-12T18:51:07.294Z,101271.74
2018-11-12T18:54:11.795Z,101279.05
2018-11-12T18:57:16.131Z,101263.92
2018-11-12T19:00:21.591Z,101270.38
2018-11-12T19:03:25.865Z,101264.44
2018-11-12T19:06:30.285Z,101281.77
2018-11-12T19:09:34.569Z,101295.98
2018-11-12T19:12:38.861Z,101293.18
2018-11-12T19:15:43.124Z,101300.70
2018-11-12T19:18:47.441Z,101305.41
2018-11-12T19:21:51.704Z,101308.55
2018-11-12T19:24:55.954Z,101316.19
2018-11-12T19:28:00.222Z,101328.63
2018-11-12T19:31:04.521Z,101334.27
2018-11-12T19:34:08.787Z,101330.49
2018-11-12T19:37:13.070Z,101326.95
2018-11-12T19:40:19.531Z,101335.73
2018-11-12T19:43:23.786Z,101340.73
2018-11-12T19:46:28.061Z,101347.41
2018-11-12T19:49:32.317Z,101344.59
2018-11-12T19:52:36.594Z,101348.97
2018-11-12T19:55:40.840Z,101355.55
2018-11-12T19:58:45.117Z,101369.98
2018-11-12T20:01:49.398Z,101372.05
2018-11-12T20:04:53.707Z,101384.39
2018-11-12T20:07:58.076Z,101374.66
2018-11-12T20:11:02.307Z,101378.63
2018-11-12T20:14:06.774Z,101374.35
2018-11-12T20:17:11.047Z,101379.24
2018-11-12T20:20:25.533Z,101389.50
2018-11-12T20:23:29.789Z,101389.75
2018-11-12T20:26:34.041Z,101383.14
2018-11-12T20:29:38.286Z,101390.34
2018-11-12T20:32:42.586Z,101402.97
2018-11-12T20:35:46.836Z,101405.28
2018-11-12T20:38:51.109Z,101403.37
2018-11-12T20:41:55.362Z,101400.46
2018-11-12T20:44:59.749Z,101405.07
2018-11-12T20:48:04.051Z,101416.13
2018-11-12T20:51:08.274Z,101426.05
2018-11-12T20:54:12.550Z,101432.90
2018-11-12T20:57:16.810Z,101438.84
2018-11-12T21:00:24.394Z,101430.83
2018-11-12T21:03:28.661Z,101431.06
2018-11-12T21:06:32.928Z,101441.79
2018-11-12T21:09:37.283Z,101441.14
2018-11-12T21:12:41.492Z,101435.65
2018-11-12T21:15:45.758Z,101434.80
2018-11-12T21:18:50.008Z,101436.53
2018-11-12T21:21:54.278Z,101415.77
2018-11-12T21:24:58.630Z,101420.75
2018-11-12T21:28:02.898Z,101431.88
2018-11-12T21:31:07.168Z,101452.73
2018-11-12T21:34:11.433Z,101451.78
2018-11-12T21:37:15.755Z,101455.61
2018-11-12T21:40:21.686Z,101453.70
2018-11-12T21:43:26.226Z,101451.59
2018-11-12T21:46:31.037Z,101452.09
2018-11-12T21:49:35.371Z,101456.05
2018-11-12T21:52:39.730Z,101460.53
2018-11-12T21:55:44.026Z,101459.88
2018-11-12T21:58:48.409Z,101450.98
2018-11-12T22:01:52.577Z,101462.03
2018-11-12T22:04:56.831Z,101473.78
2018-11-12T22:08:01.301Z,101470.52
2018-11-12T22:11:05.721Z,101473.11
2018-11-12T22:14:09.967Z,101461.42
2018-11-12T22:17:14.235Z,101459.75
2018-11-12T22:20:19.801Z,101466.00
2018-11-12T22:23:24.100Z,101474.27
2018-11-12T22:26:28.341Z,101472.72
2018-11-12T22:29:32.609Z,101476.58
2018-11-12T22:32:36.862Z,101474.07
2018-11-12T22:35:41.128Z,101472.06
2018-11-12T22:38:45.421Z,101471.11
2018-11-12T22:41:49.692Z,101470.97
2018-11-12T22:44:53.948Z,101462.41
2018-11-12T22:47:58.209Z,101467.08
2018-11-12T22:51:02.504Z,101461.00
2018-11-12T22:54:06.984Z,101466.11
2018-11-12T22:57:11.200Z,101470.88
2018-11-12T23:00:22.353Z,101477.52
2018-11-12T23:03:26.624Z,101477.41
2018-11-12T23:06:30.925Z,101490.45
2018-11-12T23:09:35.194Z,101496.06
2018-11-12T23:12:39.571Z,101503.45
2018-11-12T23:15:43.759Z,101500.89
2018-11-12T23:18:48.008Z,101492.88
2018-11-12T23:21:52.259Z,101483.84
2018-11-12T23:24:56.555Z,101485.11
2018-11-12T23:28:00.841Z,101500.28
2018-11-12T23:31:05.158Z,101499.88
2018-11-12T23:34:09.457Z,101500.84
2018-11-12T23:37:13.719Z,101488.13
2018-11-12T23:40:17.998Z,101489.60
2018-11-12T23:43:22.262Z,101490.25
2018-11-12T23:46:26.517Z,101485.34
2018-11-12T23:49:30.794Z,101480.66
2018-11-12T23:52:35.027Z,101494.41
2018-11-12T23:55:39.312Z,101495.56
2018-11-12T23:58:43.569Z,101501.41
